sensor_id;sensor_type;location;lat;lon;timestamp;temperature;humidity
5429;DHT22;2737;52.386;9.980;2023-10-13T00:00:26;14.30;99.90
5429;DHT22;2737;52.386;9.980;2023-10-13T00:02:56;14.40;99.90
5429;DHT22;2737;52.386;9.980;2023-10-13T00:05:27;14.40;99.90
5429;DHT22;2737;52.386;9.980;2023-10-13T00:07:56;14.50;99.90
5429;DHT22;2737;52.386;9.980;2023-10-13T00:10:26;14.50;99.90
5429;DHT22;2737;52.386;9.980;2023-10-13T00:12:54;14.50;99.90
5429;DHT22;2737;52.386;9.980;2023-10-13T00:15:31;14.50;99.90
5429;DHT22;2737;52.386;9.980;2023-10-13T00:18:04;14.50;99.90
5429;DHT22;2737;52.386;9.980;2023-10-13T00:20:38;14.60;99.90
5429;DHT22;2737;52.386;9.980;2023-10-13T00:23:07;14.60;99.90
5429;DHT22;2737;52.386;9.980;2023-10-13T00:25:34;14.60;99.90
5429;DHT22;2737;52.386;9.980;2023-10-13T00:28:09;14.60;99.90
5429;DHT22;2737;52.386;9.980;2023-10-13T00:30:37;14.70;99.90
5429;DHT22;2737;52.386;9.980;2023-10-13T00:33:04;14.70;99.90
5429;DHT22;2737;52.386;9.980;2023-10-13T00:35:33;14.70;99.90
5429;DHT22;2737;52.386;9.980;2023-10-13T00:38:04;14.70;99.90
5429;DHT22;2737;52.386;9.980;2023-10-13T00:40:40;14.70;99.90
5429;DHT22;2737;52.386;9.980;2023-10-13T00:43:18;14.70;99.90
5429;DHT22;2737;52.386;9.980;2023-10-13T00:46:03;14.80;99.90
5429;DHT22;2737;52.386;9.980;2023-10-13T00:48:35;14.80;99.90
5429;DHT22;2737;52.386;9.980;2023-10-13T00:51:09;14.80;99.90
5429;DHT22;2737;52.386;9.980;2023-10-13T00:53:44;14.80;99.90
5429;DHT22;2737;52.386;9.980;2023-10-13T00:56:14;14.80;99.90
5429;DHT22;2737;52.386;9.980;2023-10-13T00:58:49;14.80;99.90
5429;DHT22;2737;52.386;9.980;2023-10-13T01:01:17;14.90;99.90
5429;DHT22;2737;52.386;9.980;2023-10-13T01:03:49;14.90;99.90
5429;DHT22;2737;52.386;9.980;2023-10-13T01:06:17;14.90;99.90
5429;DHT22;2737;52.386;9.980;2023-10-13T01:08:45;14.90;99.90
5429;DHT22;2737;52.386;9.980;2023-10-13T01:11:18;14.90;99.90
5429;DHT22;2737;52.386;9.980;2023-10-13T01:13:49;15.00;99.90
5429;DHT22;2737;52.386;9.980;2023-10-13T01:16:16;15.00;99.90
5429;DHT22;2737;52.386;9.980;2023-10-13T01:18:45;15.00;99.90
5429;DHT22;2737;52.386;9.980;2023-10-13T01:21:15;15.00;99.90
5429;DHT22;2737;52.386;9.980;2023-10-13T01:23:47;15.00;99.90
5429;DHT22;2737;52.386;9.980;2023-10-13T01:26:13;15.10;99.90
5429;DHT22;2737;52.386;9.980;2023-10-13T01:28:47;15.10;99.90
5429;DHT22;2737;52.386;9.980;2023-10-13T01:31:14;15.10;99.90
5429;DHT22;2737;52.386;9.980;2023-10-13T01:33:50;15.20;99.90
5429;DHT22;2737;52.386;9.980;2023-10-13T01:36:23;15.20;99.90
5429;DHT22;2737;52.386;9.980;2023-10-13T01:38:51;15.20;99.90
5429;DHT22;2737;52.386;9.980;2023-10-13T01:41:19;15.20;99.90
5429;DHT22;2737;52.386;9.980;2023-10-13T01:43:45;15.20;99.90
5429;DHT22;2737;52.386;9.980;2023-10-13T01:46:14;15.20;99.90
5429;DHT22;2737;52.386;9.980;2023-10-13T01:48:41;15.20;99.90
5429;DHT22;2737;52.386;9.980;2023-10-13T01:51:09;15.20;99.90
5429;DHT22;2737;52.386;9.980;2023-10-13T01:53:39;15.20;99.90
5429;DHT22;2737;52.386;9.980;2023-10-13T01:56:08;15.20;99.90
5429;DHT22;2737;52.386;9.980;2023-10-13T01:58:40;15.30;99.90
5429;DHT22;2737;52.386;9.980;2023-10-13T02:01:08;15.20;99.90
5429;DHT22;2737;52.386;9.980;2023-10-13T02:03:36;15.20;99.90
5429;DHT22;2737;52.386;9.980;2023-10-13T02:06:07;15.20;99.90
5429;DHT22;2737;52.386;9.980;2023-10-13T02:08:36;15.20;99.90
5429;DHT22;2737;52.386;9.980;2023-10-13T02:11:07;15.20;99.90
5429;DHT22;2737;52.386;9.980;2023-10-13T02:13:35;15.20;99.90
5429;DHT22;2737;52.386;9.980;2023-10-13T02:16:07;15.10;99.90
5429;DHT22;2737;52.386;9.980;2023-10-13T02:18:37;15.10;99.90
5429;DHT22;2737;52.386;9.980;2023-10-13T02:21:08;15.10;99.90
5429;DHT22;2737;52.386;9.980;2023-10-13T02:23:39;15.20;99.90
5429;DHT22;2737;52.386;9.980;2023-10-13T02:26:12;15.20;99.90
5429;DHT22;2737;52.386;9.980;2023-10-13T02:28:41;15.10;99.90
5429;DHT22;2737;52.386;9.980;2023-10-13T02:31:10;15.10;99.90
5429;DHT22;2737;52.386;9.980;2023-10-13T02:33:37;15.10;99.90
5429;DHT22;2737;52.386;9.980;2023-10-13T02:36:10;15.10;99.90
5429;DHT22;2737;52.386;9.980;2023-10-13T02:38:38;15.10;99.90
5429;DHT22;2737;52.386;9.980;2023-10-13T02:41:13;15.10;99.90
5429;DHT22;2737;52.386;9.980;2023-10-13T02:43:45;15.10;99.90
5429;DHT22;2737;52.386;9.980;2023-10-13T02:46:11;15.10;99.90
5429;DHT22;2737;52.386;9.980;2023-10-13T02:48:41;15.10;99.90
5429;DHT22;2737;52.386;9.980;2023-10-13T02:51:12;15.10;99.90
5429;DHT22;2737;52.386;9.980;2023-10-13T02:53:42;15.00;99.90
5429;DHT22;2737;52.386;9.980;2023-10-13T02:56:14;15.00;99.90
5429;DHT22;2737;52.386;9.980;2023-10-13T02:58:47;15.00;99.90
5429;DHT22;2737;52.386;9.980;2023-10-13T03:01:19;15.00;99.90
5429;DHT22;2737;52.386;9.980;2023-10-13T03:03:48;15.00;99.90
5429;DHT22;2737;52.386;9.980;2023-10-13T03:06:21;15.10;99.90
5429;DHT22;2737;52.386;9.980;2023-10-13T03:08:50;15.00;99.90
5429;DHT22;2737;52.386;9.980;2023-10-13T03:11:19;15.10;99.90
5429;DHT22;2737;52.386;9.980;2023-10-13T03:13:48;15.10;99.90
5429;DHT22;2737;52.386;9.980;2023-10-13T03:16:18;15.10;99.90
5429;DHT22;2737;52.386;9.980;2023-10-13T03:18:46;15.10;99.90
5429;DHT22;2737;52.386;9.980;2023-10-13T03:21:22;15.10;99.90
5429;DHT22;2737;52.386;9.980;2023-10-13T03:23:57;15.10;99.90
5429;DHT22;2737;52.386;9.980;2023-10-13T03:26:34;15.10;99.90
5429;DHT22;2737;52.386;9.980;2023-10-13T03:29:10;15.00;99.90
5429;DHT22;2737;52.386;9.980;2023-10-13T03:31:47;15.20;99.90
5429;DHT22;2737;52.386;9.980;2023-10-13T03:34:29;15.20;99.90
5429;DHT22;2737;52.386;9.980;2023-10-13T03:36:56;15.20;99.90
5429;DHT22;2737;52.386;9.980;2023-10-13T03:39:23;15.20;99.90
5429;DHT22;2737;52.386;9.980;2023-10-13T03:41:56;15.20;99.90
5429;DHT22;2737;52.386;9.980;2023-10-13T03:44:25;15.20;99.90
5429;DHT22;2737;52.386;9.980;2023-10-13T03:46:56;15.20;99.90
5429;DHT22;2737;52.386;9.980;2023-10-13T03:49:30;15.20;99.90
5429;DHT22;2737;52.386;9.980;2023-10-13T03:52:03;15.20;99.90
5429;DHT22;2737;52.386;9.980;2023-10-13T03:54:31;15.20;99.90
5429;DHT22;2737;52.386;9.980;2023-10-13T03:57:02;15.20;99.90
5429;DHT22;2737;52.386;9.980;2023-10-13T03:59:37;15.20;99.90
5429;DHT22;2737;52.386;9.980;2023-10-13T04:02:05;15.20;99.90
5429;DHT22;2737;52.386;9.980;2023-10-13T04:04:38;15.20;99.90
5429;DHT22;2737;52.386;9.980;2023-10-13T04:07:14;15.30;99.90
5429;DHT22;2737;52.386;9.980;2023-10-13T04:09:58;15.30;99.90
5429;DHT22;2737;52.386;9.980;2023-10-13T04:13:07;15.30;99.90
5429;DHT22;2737;52.386;9.980;2023-10-13T04:15:51;15.30;99.90
5429;DHT22;2737;52.386;9.980;2023-10-13T04:19:00;15.30;99.90
5429;DHT22;2737;52.386;9.980;2023-10-13T04:21:35;15.30;99.90
5429;DHT22;2737;52.386;9.980;2023-10-13T04:24:23;15.30;99.90
5429;DHT22;2737;52.386;9.980;2023-10-13T04:27:05;15.30;99.90
5429;DHT22;2737;52.386;9.980;2023-10-13T04:29:51;15.30;99.90
5429;DHT22;2737;52.386;9.980;2023-10-13T04:32:36;15.30;99.90
5429;DHT22;2737;52.386;9.980;2023-10-13T04:35:05;15.30;99.90
5429;DHT22;2737;52.386;9.980;2023-10-13T04:37:36;15.30;99.90
5429;DHT22;2737;52.386;9.980;2023-10-13T04:40:14;15.30;99.90
5429;DHT22;2737;52.386;9.980;2023-10-13T04:42:43;15.30;99.90
5429;DHT22;2737;52.386;9.980;2023-10-13T04:45:17;15.30;99.90
5429;DHT22;2737;52.386;9.980;2023-10-13T04:48:02;15.30;99.90
5429;DHT22;2737;52.386;9.980;2023-10-13T04:50:44;15.20;99.90
5429;DHT22;2737;52.386;9.980;2023-10-13T04:53:13;15.20;99.90
5429;DHT22;2737;52.386;9.980;2023-10-13T04:55:59;15.10;99.90
5429;DHT22;2737;52.386;9.980;2023-10-13T04:58:56;15.10;99.90
5429;DHT22;2737;52.386;9.980;2023-10-13T05:01:38;15.10;99.90
5429;DHT22;2737;52.386;9.980;2023-10-13T05:04:31;15.10;99.90
5429;DHT22;2737;52.386;9.980;2023-10-13T05:07:24;15.10;99.90
5429;DHT22;2737;52.386;9.980;2023-10-13T05:10:09;15.10;99.90
5429;DHT22;2737;52.386;9.980;2023-10-13T05:12:53;15.20;99.90
5429;DHT22;2737;52.386;9.980;2023-10-13T05:15:43;15.10;99.90
5429;DHT22;2737;52.386;9.980;2023-10-13T05:18:29;15.20;99.90
5429;DHT22;2737;52.386;9.980;2023-10-13T05:21:13;15.20;99.90
5429;DHT22;2737;52.386;9.980;2023-10-13T05:23:57;15.20;99.90
5429;DHT22;2737;52.386;9.980;2023-10-13T05:26:42;15.20;99.90
5429;DHT22;2737;52.386;9.980;2023-10-13T05:29:38;15.20;99.90
5429;DHT22;2737;52.386;9.980;2023-10-13T05:32:22;15.20;99.90
5429;DHT22;2737;52.386;9.980;2023-10-13T05:35:08;15.30;99.90
5429;DHT22;2737;52.386;9.980;2023-10-13T05:37:48;15.30;99.90
5429;DHT22;2737;52.386;9.980;2023-10-13T05:40:33;15.30;99.90
5429;DHT22;2737;52.386;9.980;2023-10-13T05:43:18;15.20;99.90
5429;DHT22;2737;52.386;9.980;2023-10-13T05:46:03;15.20;99.90
5429;DHT22;2737;52.386;9.980;2023-10-13T05:48:48;15.20;99.90
5429;DHT22;2737;52.386;9.980;2023-10-13T05:51:36;15.20;99.90
5429;DHT22;2737;52.386;9.980;2023-10-13T05:54:23;15.30;99.90
5429;DHT22;2737;52.386;9.980;2023-10-13T05:57:07;15.30;99.90
5429;DHT22;2737;52.386;9.980;2023-10-13T05:59:52;15.30;99.90
5429;DHT22;2737;52.386;9.980;2023-10-13T06:02:36;15.30;99.90
5429;DHT22;2737;52.386;9.980;2023-10-13T06:05:20;15.30;99.90
5429;DHT22;2737;52.386;9.980;2023-10-13T06:08:07;15.30;99.90
5429;DHT22;2737;52.386;9.980;2023-10-13T06:11:01;15.30;99.90
5429;DHT22;2737;52.386;9.980;2023-10-13T06:13:45;15.40;99.90
5429;DHT22;2737;52.386;9.980;2023-10-13T06:16:30;15.40;99.90
5429;DHT22;2737;52.386;9.980;2023-10-13T06:19:15;15.40;99.90
5429;DHT22;2737;52.386;9.980;2023-10-13T06:21:59;15.40;99.90
5429;DHT22;2737;52.386;9.980;2023-10-13T06:24:45;15.50;99.90
5429;DHT22;2737;52.386;9.980;2023-10-13T06:27:30;15.50;99.90
5429;DHT22;2737;52.386;9.980;2023-10-13T06:30:14;15.50;99.90
5429;DHT22;2737;52.386;9.980;2023-10-13T06:32:42;15.60;99.90
5429;DHT22;2737;52.386;9.980;2023-10-13T06:35:11;15.60;99.90
5429;DHT22;2737;52.386;9.980;2023-10-13T06:37:48;15.70;99.90
5429;DHT22;2737;52.386;9.980;2023-10-13T06:40:17;15.70;99.90
5429;DHT22;2737;52.386;9.980;2023-10-13T06:42:59;15.60;99.90
5429;DHT22;2737;52.386;9.980;2023-10-13T06:45:38;15.70;99.90
5429;DHT22;2737;52.386;9.980;2023-10-13T06:48:06;15.70;99.90
5429;DHT22;2737;52.386;9.980;2023-10-13T06:50:37;15.70;99.90
5429;DHT22;2737;52.386;9.980;2023-10-13T06:53:07;15.70;99.90
5429;DHT22;2737;52.386;9.980;2023-10-13T06:55:39;15.70;99.90
5429;DHT22;2737;52.386;9.980;2023-10-13T06:58:06;15.70;99.90
5429;DHT22;2737;52.386;9.980;2023-10-13T07:00:40;15.80;99.90
5429;DHT22;2737;52.386;9.980;2023-10-13T07:03:07;15.80;99.90
5429;DHT22;2737;52.386;9.980;2023-10-13T07:05:36;15.80;99.90
5429;DHT22;2737;52.386;9.980;2023-10-13T07:08:05;15.80;99.90
5429;DHT22;2737;52.386;9.980;2023-10-13T07:10:32;15.70;99.90
5429;DHT22;2737;52.386;9.980;2023-10-13T07:13:12;15.80;99.90
5429;DHT22;2737;52.386;9.980;2023-10-13T07:15:40;15.80;99.90
5429;DHT22;2737;52.386;9.980;2023-10-13T07:18:12;15.80;99.90
5429;DHT22;2737;52.386;9.980;2023-10-13T07:20:41;15.90;99.90
5429;DHT22;2737;52.386;9.980;2023-10-13T07:23:11;15.90;99.90
5429;DHT22;2737;52.386;9.980;2023-10-13T07:25:50;15.90;99.90
5429;DHT22;2737;52.386;9.980;2023-10-13T07:28:20;15.90;99.90
5429;DHT22;2737;52.386;9.980;2023-10-13T07:30:47;15.90;99.90
5429;DHT22;2737;52.386;9.980;2023-10-13T07:33:36;16.00;99.90
5429;DHT22;2737;52.386;9.980;2023-10-13T07:36:05;16.00;99.90
5429;DHT22;2737;52.386;9.980;2023-10-13T07:38:37;16.00;99.90
5429;DHT22;2737;52.386;9.980;2023-10-13T07:41:04;16.00;99.90
5429;DHT22;2737;52.386;9.980;2023-10-13T07:43:36;16.10;99.90
5429;DHT22;2737;52.386;9.980;2023-10-13T07:46:03;16.10;99.90
5429;DHT22;2737;52.386;9.980;2023-10-13T07:48:36;16.10;99.90
5429;DHT22;2737;52.386;9.980;2023-10-13T07:51:05;16.10;99.90
5429;DHT22;2737;52.386;9.980;2023-10-13T07:53:36;16.10;99.90
5429;DHT22;2737;52.386;9.980;2023-10-13T07:56:04;16.20;99.90
5429;DHT22;2737;52.386;9.980;2023-10-13T07:58:33;16.20;99.90
5429;DHT22;2737;52.386;9.980;2023-10-13T08:01:01;16.20;99.90
5429;DHT22;2737;52.386;9.980;2023-10-13T08:03:35;16.20;99.90
5429;DHT22;2737;52.386;9.980;2023-10-13T08:06:09;16.20;99.90
5429;DHT22;2737;52.386;9.980;2023-10-13T08:08:46;16.20;99.90
5429;DHT22;2737;52.386;9.980;2023-10-13T08:11:16;16.30;99.90
5429;DHT22;2737;52.386;9.980;2023-10-13T08:13:54;16.30;99.90
5429;DHT22;2737;52.386;9.980;2023-10-13T08:16:28;16.30;99.90
5429;DHT22;2737;52.386;9.980;2023-10-13T08:19:11;16.30;99.90
5429;DHT22;2737;52.386;9.980;2023-10-13T08:21:41;16.30;99.90
5429;DHT22;2737;52.386;9.980;2023-10-13T08:24:15;16.40;99.90
5429;DHT22;2737;52.386;9.980;2023-10-13T08:26:50;16.50;99.90
5429;DHT22;2737;52.386;9.980;2023-10-13T08:29:24;16.50;99.90
5429;DHT22;2737;52.386;9.980;2023-10-13T08:32:10;16.50;99.90
5429;DHT22;2737;52.386;9.980;2023-10-13T08:34:58;16.60;99.90
5429;DHT22;2737;52.386;9.980;2023-10-13T08:37:47;16.60;99.90
5429;DHT22;2737;52.386;9.980;2023-10-13T08:40:23;16.70;99.90
5429;DHT22;2737;52.386;9.980;2023-10-13T08:43:05;16.70;99.90
5429;DHT22;2737;52.386;9.980;2023-10-13T08:45:38;16.80;99.90
5429;DHT22;2737;52.386;9.980;2023-10-13T08:48:26;16.80;99.90
5429;DHT22;2737;52.386;9.980;2023-10-13T08:50:58;16.90;99.90
5429;DHT22;2737;52.386;9.980;2023-10-13T08:53:35;16.90;99.90
5429;DHT22;2737;52.386;9.980;2023-10-13T08:56:12;16.90;99.90
5429;DHT22;2737;52.386;9.980;2023-10-13T09:08:50;17.20;99.90
5429;DHT22;2737;52.386;9.980;2023-10-13T09:11:33;17.20;99.90
5429;DHT22;2737;52.386;9.980;2023-10-13T09:14:14;17.20;99.90
5429;DHT22;2737;52.386;9.980;2023-10-13T09:17:05;17.20;99.90
5429;DHT22;2737;52.386;9.980;2023-10-13T09:19:48;17.20;99.90
5429;DHT22;2737;52.386;9.980;2023-10-13T09:22:24;17.30;99.90
5429;DHT22;2737;52.386;9.980;2023-10-13T09:24:56;17.20;99.90
5429;DHT22;2737;52.386;9.980;2023-10-13T09:27:25;17.20;99.90
5429;DHT22;2737;52.386;9.980;2023-10-13T09:29:58;17.30;99.90
5429;DHT22;2737;52.386;9.980;2023-10-13T09:32:44;17.30;99.90
5429;DHT22;2737;52.386;9.980;2023-10-13T09:35:17;17.40;99.90
5429;DHT22;2737;52.386;9.980;2023-10-13T09:37:49;17.40;99.90
5429;DHT22;2737;52.386;9.980;2023-10-13T09:40:17;17.50;99.90
5429;DHT22;2737;52.386;9.980;2023-10-13T09:43:00;17.50;99.90
5429;DHT22;2737;52.386;9.980;2023-10-13T09:45:33;17.50;99.90
5429;DHT22;2737;52.386;9.980;2023-10-13T09:48:03;17.60;99.90
5429;DHT22;2737;52.386;9.980;2023-10-13T09:50:37;17.70;99.90
5429;DHT22;2737;52.386;9.980;2023-10-13T09:53:06;17.70;99.90
5429;DHT22;2737;52.386;9.980;2023-10-13T09:55:42;17.70;99.90
5429;DHT22;2737;52.386;9.980;2023-10-13T09:58:11;17.80;99.90
5429;DHT22;2737;52.386;9.980;2023-10-13T10:00:45;17.80;99.90
5429;DHT22;2737;52.386;9.980;2023-10-13T10:03:14;17.80;99.90
5429;DHT22;2737;52.386;9.980;2023-10-13T10:05:56;17.90;99.90
5429;DHT22;2737;52.386;9.980;2023-10-13T10:08:29;18.00;99.90
5429;DHT22;2737;52.386;9.980;2023-10-13T10:14:08;18.10;99.90
5429;DHT22;2737;52.386;9.980;2023-10-13T10:16:45;18.20;99.90
5429;DHT22;2737;52.386;9.980;2023-10-13T10:19:16;18.30;99.90
5429;DHT22;2737;52.386;9.980;2023-10-13T10:21:44;18.30;99.90
5429;DHT22;2737;52.386;9.980;2023-10-13T10:24:15;18.40;99.90
5429;DHT22;2737;52.386;9.980;2023-10-13T10:26:52;18.50;99.90
5429;DHT22;2737;52.386;9.980;2023-10-13T10:29:21;18.50;99.90
5429;DHT22;2737;52.386;9.980;2023-10-13T10:31:49;18.50;99.90
5429;DHT22;2737;52.386;9.980;2023-10-13T10:34:17;18.50;99.90
5429;DHT22;2737;52.386;9.980;2023-10-13T10:36:54;18.60;99.90
5429;DHT22;2737;52.386;9.980;2023-10-13T10:39:33;18.70;99.90
5429;DHT22;2737;52.386;9.980;2023-10-13T10:42:09;18.70;99.90
5429;DHT22;2737;52.386;9.980;2023-10-13T10:44:42;18.80;99.90
5429;DHT22;2737;52.386;9.980;2023-10-13T10:47:10;18.90;99.90
5429;DHT22;2737;52.386;9.980;2023-10-13T10:49:45;18.90;99.90
5429;DHT22;2737;52.386;9.980;2023-10-13T10:52:17;19.00;99.90
5429;DHT22;2737;52.386;9.980;2023-10-13T10:54:45;19.00;99.90
5429;DHT22;2737;52.386;9.980;2023-10-13T10:57:17;19.10;99.90
5429;DHT22;2737;52.386;9.980;2023-10-13T10:59:46;19.10;99.90
5429;DHT22;2737;52.386;9.980;2023-10-13T11:02:30;19.20;99.90
5429;DHT22;2737;52.386;9.980;2023-10-13T11:04:57;19.30;99.90
5429;DHT22;2737;52.386;9.980;2023-10-13T11:07:24;19.30;99.90
5429;DHT22;2737;52.386;9.980;2023-10-13T11:09:53;19.40;99.90
5429;DHT22;2737;52.386;9.980;2023-10-13T11:12:32;19.50;99.90
5429;DHT22;2737;52.386;9.980;2023-10-13T11:15:02;19.60;99.90
5429;DHT22;2737;52.386;9.980;2023-10-13T11:17:31;19.60;99.90
5429;DHT22;2737;52.386;9.980;2023-10-13T11:20:12;19.60;99.90
5429;DHT22;2737;52.386;9.980;2023-10-13T11:22:46;19.70;99.90
5429;DHT22;2737;52.386;9.980;2023-10-13T11:25:21;19.80;99.90
5429;DHT22;2737;52.386;9.980;2023-10-13T11:27:55;19.80;99.90
5429;DHT22;2737;52.386;9.980;2023-10-13T11:30:26;19.90;99.90
5429;DHT22;2737;52.386;9.980;2023-10-13T11:33:08;20.10;99.90
5429;DHT22;2737;52.386;9.980;2023-10-13T11:35:36;20.20;99.90
5429;DHT22;2737;52.386;9.980;2023-10-13T11:38:22;20.20;99.90
5429;DHT22;2737;52.386;9.980;2023-10-13T11:40:53;20.20;99.90
5429;DHT22;2737;52.386;9.980;2023-10-13T11:43:34;20.30;99.90
5429;DHT22;2737;52.386;9.980;2023-10-13T11:46:14;20.30;99.90
5429;DHT22;2737;52.386;9.980;2023-10-13T11:48:42;20.30;99.90
5429;DHT22;2737;52.386;9.980;2023-10-13T11:51:10;20.30;99.90
5429;DHT22;2737;52.386;9.980;2023-10-13T11:53:43;20.40;99.90
5429;DHT22;2737;52.386;9.980;2023-10-13T11:56:13;20.40;99.90
5429;DHT22;2737;52.386;9.980;2023-10-13T11:58:43;20.50;99.90
5429;DHT22;2737;52.386;9.980;2023-10-13T12:01:11;20.60;99.90
5429;DHT22;2737;52.386;9.980;2023-10-13T12:03:49;20.70;99.90
5429;DHT22;2737;52.386;9.980;2023-10-13T12:06:34;20.70;99.90
5429;DHT22;2737;52.386;9.980;2023-10-13T12:09:12;20.70;99.90
5429;DHT22;2737;52.386;9.980;2023-10-13T12:11:58;20.80;99.90
5429;DHT22;2737;52.386;9.980;2023-10-13T12:14:28;20.80;99.90
5429;DHT22;2737;52.386;9.980;2023-10-13T12:16:55;20.90;99.90
5429;DHT22;2737;52.386;9.980;2023-10-13T12:19:30;20.90;99.90
5429;DHT22;2737;52.386;9.980;2023-10-13T12:22:00;20.90;99.90
5429;DHT22;2737;52.386;9.980;2023-10-13T12:24:31;21.00;99.90
5429;DHT22;2737;52.386;9.980;2023-10-13T12:27:07;21.10;99.90
5429;DHT22;2737;52.386;9.980;2023-10-13T12:29:45;21.10;99.90
5429;DHT22;2737;52.386;9.980;2023-10-13T12:32:12;21.20;99.90
5429;DHT22;2737;52.386;9.980;2023-10-13T12:34:41;21.20;99.90
5429;DHT22;2737;52.386;9.980;2023-10-13T12:37:27;21.20;99.90
5429;DHT22;2737;52.386;9.980;2023-10-13T12:40:16;21.20;99.90
5429;DHT22;2737;52.386;9.980;2023-10-13T12:43:01;21.40;99.90
5429;DHT22;2737;52.386;9.980;2023-10-13T12:45:47;21.50;99.90
5429;DHT22;2737;52.386;9.980;2023-10-13T12:48:32;21.50;99.90
5429;DHT22;2737;52.386;9.980;2023-10-13T12:51:19;21.50;99.90
5429;DHT22;2737;52.386;9.980;2023-10-13T12:53:47;21.50;99.90
5429;DHT22;2737;52.386;9.980;2023-10-13T12:56:15;21.50;99.90
5429;DHT22;2737;52.386;9.980;2023-10-13T12:58:42;21.50;99.90
5429;DHT22;2737;52.386;9.980;2023-10-13T13:01:17;21.40;99.90
5429;DHT22;2737;52.386;9.980;2023-10-13T13:03:46;21.30;99.90
5429;DHT22;2737;52.386;9.980;2023-10-13T13:06:18;21.30;99.90
5429;DHT22;2737;52.386;9.980;2023-10-13T13:08:50;21.20;99.90
5429;DHT22;2737;52.386;9.980;2023-10-13T13:11:17;21.20;99.90
5429;DHT22;2737;52.386;9.980;2023-10-13T13:13:44;21.20;99.90
5429;DHT22;2737;52.386;9.980;2023-10-13T13:16:12;21.20;99.90
5429;DHT22;2737;52.386;9.980;2023-10-13T13:18:39;21.20;99.90
5429;DHT22;2737;52.386;9.980;2023-10-13T13:21:06;21.20;99.90
5429;DHT22;2737;52.386;9.980;2023-10-13T13:23:39;21.20;99.90
5429;DHT22;2737;52.386;9.980;2023-10-13T13:26:06;21.30;99.90
5429;DHT22;2737;52.386;9.980;2023-10-13T13:28:41;21.30;99.90
5429;DHT22;2737;52.386;9.980;2023-10-13T13:31:08;21.20;99.90
5429;DHT22;2737;52.386;9.980;2023-10-13T13:33:38;21.20;99.90
5429;DHT22;2737;52.386;9.980;2023-10-13T13:36:08;21.20;99.90
5429;DHT22;2737;52.386;9.980;2023-10-13T13:38:40;21.20;99.90
5429;DHT22;2737;52.386;9.980;2023-10-13T13:41:12;21.30;99.90
5429;DHT22;2737;52.386;9.980;2023-10-13T13:43:42;21.30;99.90
5429;DHT22;2737;52.386;9.980;2023-10-13T13:46:21;21.40;99.90
5429;DHT22;2737;52.386;9.980;2023-10-13T13:48:51;21.40;99.90
5429;DHT22;2737;52.386;9.980;2023-10-13T13:51:23;21.50;99.90
5429;DHT22;2737;52.386;9.980;2023-10-13T13:53:55;21.50;99.90
5429;DHT22;2737;52.386;9.980;2023-10-13T13:56:22;21.50;99.90
5429;DHT22;2737;52.386;9.980;2023-10-13T13:58:52;21.50;99.90
5429;DHT22;2737;52.386;9.980;2023-10-13T14:01:19;21.50;99.90
5429;DHT22;2737;52.386;9.980;2023-10-13T14:03:48;21.50;99.90
5429;DHT22;2737;52.386;9.980;2023-10-13T14:06:17;21.50;99.90
5429;DHT22;2737;52.386;9.980;2023-10-13T14:08:49;21.50;99.90
5429;DHT22;2737;52.386;9.980;2023-10-13T14:11:18;21.50;99.90
5429;DHT22;2737;52.386;9.980;2023-10-13T14:14:05;21.60;99.90
5429;DHT22;2737;52.386;9.980;2023-10-13T14:16:38;21.60;99.90
5429;DHT22;2737;52.386;9.980;2023-10-13T14:19:10;21.60;99.90
5429;DHT22;2737;52.386;9.980;2023-10-13T14:21:37;21.60;99.90
5429;DHT22;2737;52.386;9.980;2023-10-13T14:24:04;21.60;99.90
5429;DHT22;2737;52.386;9.980;2023-10-13T14:26:40;21.70;99.90
5429;DHT22;2737;52.386;9.980;2023-10-13T14:29:09;21.70;99.90
5429;DHT22;2737;52.386;9.980;2023-10-13T14:31:40;21.60;99.90
5429;DHT22;2737;52.386;9.980;2023-10-13T14:34:09;21.60;99.90
5429;DHT22;2737;52.386;9.980;2023-10-13T14:36:36;21.70;99.90
5429;DHT22;2737;52.386;9.980;2023-10-13T14:39:05;21.70;99.90
5429;DHT22;2737;52.386;9.980;2023-10-13T14:41:34;21.70;99.90
5429;DHT22;2737;52.386;9.980;2023-10-13T14:44:03;21.70;99.90
5429;DHT22;2737;52.386;9.980;2023-10-13T14:46:32;21.70;99.90
5429;DHT22;2737;52.386;9.980;2023-10-13T14:49:01;21.70;99.90
5429;DHT22;2737;52.386;9.980;2023-10-13T14:51:29;21.70;99.90
5429;DHT22;2737;52.386;9.980;2023-10-13T14:53:57;21.70;99.90
5429;DHT22;2737;52.386;9.980;2023-10-13T14:56:26;21.80;99.90
5429;DHT22;2737;52.386;9.980;2023-10-13T14:58:54;21.80;99.90
5429;DHT22;2737;52.386;9.980;2023-10-13T15:01:23;21.80;99.90
5429;DHT22;2737;52.386;9.980;2023-10-13T15:03:52;21.80;99.90
5429;DHT22;2737;52.386;9.980;2023-10-13T15:06:23;21.80;99.90
5429;DHT22;2737;52.386;9.980;2023-10-13T15:08:55;21.70;99.90
5429;DHT22;2737;52.386;9.980;2023-10-13T15:11:23;21.70;99.90
5429;DHT22;2737;52.386;9.980;2023-10-13T15:13:52;21.60;99.90
5429;DHT22;2737;52.386;9.980;2023-10-13T15:16:22;21.60;99.90
5429;DHT22;2737;52.386;9.980;2023-10-13T15:18:51;21.60;99.90
5429;DHT22;2737;52.386;9.980;2023-10-13T15:21:22;21.50;99.90
5429;DHT22;2737;52.386;9.980;2023-10-13T15:23:52;21.50;99.90
5429;DHT22;2737;52.386;9.980;2023-10-13T15:26:19;21.50;99.90
5429;DHT22;2737;52.386;9.980;2023-10-13T15:28:47;21.50;99.90
5429;DHT22;2737;52.386;9.980;2023-10-13T15:31:15;21.50;99.90
5429;DHT22;2737;52.386;9.980;2023-10-13T15:34:04;21.50;99.90
5429;DHT22;2737;52.386;9.980;2023-10-13T15:36:39;21.50;99.90
5429;DHT22;2737;52.386;9.980;2023-10-13T15:39:06;21.50;99.90
5429;DHT22;2737;52.386;9.980;2023-10-13T15:41:36;21.60;99.90
5429;DHT22;2737;52.386;9.980;2023-10-13T15:44:05;21.50;99.90
5429;DHT22;2737;52.386;9.980;2023-10-13T15:46:35;21.50;99.90
5429;DHT22;2737;52.386;9.980;2023-10-13T15:49:04;21.50;99.90
5429;DHT22;2737;52.386;9.980;2023-10-13T15:51:32;21.60;99.90
5429;DHT22;2737;52.386;9.980;2023-10-13T15:53:59;21.60;99.90
5429;DHT22;2737;52.386;9.980;2023-10-13T15:56:26;21.60;99.90
5429;DHT22;2737;52.386;9.980;2023-10-13T15:58:57;21.60;99.90
5429;DHT22;2737;52.386;9.980;2023-10-13T16:01:26;21.50;99.90
5429;DHT22;2737;52.386;9.980;2023-10-13T16:03:55;21.50;99.90
5429;DHT22;2737;52.386;9.980;2023-10-13T16:06:23;21.60;99.90
5429;DHT22;2737;52.386;9.980;2023-10-13T16:08:52;21.60;99.90
5429;DHT22;2737;52.386;9.980;2023-10-13T16:11:19;21.60;99.90
5429;DHT22;2737;52.386;9.980;2023-10-13T16:13:47;21.60;99.90
5429;DHT22;2737;52.386;9.980;2023-10-13T16:16:16;21.50;99.90
5429;DHT22;2737;52.386;9.980;2023-10-13T16:18:44;21.50;99.90
5429;DHT22;2737;52.386;9.980;2023-10-13T16:21:11;21.50;99.90
5429;DHT22;2737;52.386;9.980;2023-10-13T16:23:41;21.60;99.90
5429;DHT22;2737;52.386;9.980;2023-10-13T16:26:11;21.60;99.90
5429;DHT22;2737;52.386;9.980;2023-10-13T16:28:38;21.60;99.90
5429;DHT22;2737;52.386;9.980;2023-10-13T16:31:06;21.50;99.90
5429;DHT22;2737;52.386;9.980;2023-10-13T16:33:34;21.50;99.90
5429;DHT22;2737;52.386;9.980;2023-10-13T16:36:01;21.50;99.90
5429;DHT22;2737;52.386;9.980;2023-10-13T16:38:31;21.50;99.90
5429;DHT22;2737;52.386;9.980;2023-10-13T16:40:59;21.50;99.90
5429;DHT22;2737;52.386;9.980;2023-10-13T16:43:27;21.40;99.90
5429;DHT22;2737;52.386;9.980;2023-10-13T16:45:56;21.40;99.90
5429;DHT22;2737;52.386;9.980;2023-10-13T16:48:23;21.30;99.90
5429;DHT22;2737;52.386;9.980;2023-10-13T16:50:52;21.40;99.90
5429;DHT22;2737;52.386;9.980;2023-10-13T16:53:23;21.40;99.90
5429;DHT22;2737;52.386;9.980;2023-10-13T16:55:50;21.40;99.90